sensor_id;sensor_type;location;lat;lon;timestamp;temperature;humidity
3548;DHT22;1788;49.400;11.092;2023-07-31T00:02:03;19.20;54.30
3548;DHT22;1788;49.400;11.092;2023-07-31T00:04:30;19.20;54.50
3548;DHT22;1788;49.400;11.092;2023-07-31T00:06:57;19.20;54.50
3548;DHT22;1788;49.400;11.092;2023-07-31T00:09:24;19.20;54.40
3548;DHT22;1788;49.400;11.092;2023-07-31T00:11:51;19.20;54.40
3548;DHT22;1788;49.400;11.092;2023-07-31T00:14:17;19.20;54.40
3548;DHT22;1788;49.400;11.092;2023-07-31T00:16:44;19.20;54.40
3548;DHT22;1788;49.400;11.092;2023-07-31T00:19:11;19.20;54.40
3548;DHT22;1788;49.400;11.092;2023-07-31T00:21:37;19.20;54.40
3548;DHT22;1788;49.400;11.092;2023-07-31T00:24:04;19.20;54.40
3548;DHT22;1788;49.400;11.092;2023-07-31T00:26:30;19.20;54.40
3548;DHT22;1788;49.400;11.092;2023-07-31T00:28:57;19.30;54.50
3548;DHT22;1788;49.400;11.092;2023-07-31T00:31:24;19.20;54.40
3548;DHT22;1788;49.400;11.092;2023-07-31T00:33:50;19.30;54.50
3548;DHT22;1788;49.400;11.092;2023-07-31T00:36:17;19.30;54.50
3548;DHT22;1788;49.400;11.092;2023-07-31T00:38:44;19.30;54.70
3548;DHT22;1788;49.400;11.092;2023-07-31T00:41:11;19.20;54.60
3548;DHT22;1788;49.400;11.092;2023-07-31T00:43:38;19.30;54.80
3548;DHT22;1788;49.400;11.092;2023-07-31T00:46:05;19.20;54.70
3548;DHT22;1788;49.400;11.092;2023-07-31T00:48:32;19.20;55.30
3548;DHT22;1788;49.400;11.092;2023-07-31T00:50:59;19.20;54.80
3548;DHT22;1788;49.400;11.092;2023-07-31T00:53:25;19.20;54.90
3548;DHT22;1788;49.400;11.092;2023-07-31T00:55:52;19.20;54.90
3548;DHT22;1788;49.400;11.092;2023-07-31T00:58:19;19.20;55.00
3548;DHT22;1788;49.400;11.092;2023-07-31T01:00:46;19.10;55.10
3548;DHT22;1788;49.400;11.092;2023-07-31T01:03:13;19.10;55.10
3548;DHT22;1788;49.400;11.092;2023-07-31T01:10:37;19.00;55.40
3548;DHT22;1788;49.400;11.092;2023-07-31T01:13:01;19.00;55.40
3548;DHT22;1788;49.400;11.092;2023-07-31T01:15:28;19.00;55.60
3548;DHT22;1788;49.400;11.092;2023-07-31T01:17:55;18.90;55.50
3548;DHT22;1788;49.400;11.092;2023-07-31T01:20:23;19.00;55.80
3548;DHT22;1788;49.400;11.092;2023-07-31T01:25:18;19.00;55.80
3548;DHT22;1788;49.400;11.092;2023-07-31T01:30:09;19.00;55.80
3548;DHT22;1788;49.400;11.092;2023-07-31T01:32:36;18.90;55.70
3548;DHT22;1788;49.400;11.092;2023-07-31T01:35:02;18.90;55.70
3548;DHT22;1788;49.400;11.092;2023-07-31T01:37:30;19.00;55.70
3548;DHT22;1788;49.400;11.092;2023-07-31T01:39:56;19.00;55.70
3548;DHT22;1788;49.400;11.092;2023-07-31T01:42:23;19.10;55.70
3548;DHT22;1788;49.400;11.092;2023-07-31T01:44:50;19.10;55.70
3548;DHT22;1788;49.400;11.092;2023-07-31T01:47:16;19.10;55.60
3548;DHT22;1788;49.400;11.092;2023-07-31T01:49:44;19.10;55.60
3548;DHT22;1788;49.400;11.092;2023-07-31T01:52:10;19.10;55.60
3548;DHT22;1788;49.400;11.092;2023-07-31T01:54:38;19.10;55.50
3548;DHT22;1788;49.400;11.092;2023-07-31T01:57:04;19.20;55.50
3548;DHT22;1788;49.400;11.092;2023-07-31T01:59:32;19.20;55.50
3548;DHT22;1788;49.400;11.092;2023-07-31T02:01:58;19.20;55.50
3548;DHT22;1788;49.400;11.092;2023-07-31T02:04:25;19.20;55.50
3548;DHT22;1788;49.400;11.092;2023-07-31T02:06:52;19.20;55.50
3548;DHT22;1788;49.400;11.092;2023-07-31T02:09:18;19.20;55.50
3548;DHT22;1788;49.400;11.092;2023-07-31T02:11:45;19.20;55.50
3548;DHT22;1788;49.400;11.092;2023-07-31T02:14:12;19.20;55.50
3548;DHT22;1788;49.400;11.092;2023-07-31T02:16:39;19.20;55.50
3548;DHT22;1788;49.400;11.092;2023-07-31T02:19:06;19.20;55.50
3548;DHT22;1788;49.400;11.092;2023-07-31T02:21:33;19.20;55.50
3548;DHT22;1788;49.400;11.092;2023-07-31T02:23:59;19.10;55.40
3548;DHT22;1788;49.400;11.092;2023-07-31T02:26:26;19.10;55.50
3548;DHT22;1788;49.400;11.092;2023-07-31T02:28:52;19.00;55.50
3548;DHT22;1788;49.400;11.092;2023-07-31T02:31:19;19.00;55.60
3548;DHT22;1788;49.400;11.092;2023-07-31T02:33:46;19.00;55.70
3548;DHT22;1788;49.400;11.092;2023-07-31T02:36:12;18.90;55.70
3548;DHT22;1788;49.400;11.092;2023-07-31T02:38:40;19.00;55.80
3548;DHT22;1788;49.400;11.092;2023-07-31T02:41:07;18.90;55.70
3548;DHT22;1788;49.400;11.092;2023-07-31T02:43:34;19.00;55.80
3548;DHT22;1788;49.400;11.092;2023-07-31T02:46:00;18.90;55.70
3548;DHT22;1788;49.400;11.092;2023-07-31T02:48:27;18.90;55.80
3548;DHT22;1788;49.400;11.092;2023-07-31T02:50:53;19.00;55.80
3548;DHT22;1788;49.400;11.092;2023-07-31T02:53:20;19.00;55.80
3548;DHT22;1788;49.400;11.092;2023-07-31T02:55:47;19.00;55.80
3548;DHT22;1788;49.400;11.092;2023-07-31T02:58:14;19.00;55.80
3548;DHT22;1788;49.400;11.092;2023-07-31T03:00:42;19.00;56.00
3548;DHT22;1788;49.400;11.092;2023-07-31T03:03:08;19.00;55.80
3548;DHT22;1788;49.400;11.092;2023-07-31T03:05:35;19.00;56.40
3548;DHT22;1788;49.400;11.092;2023-07-31T03:08:02;19.00;55.80
3548;DHT22;1788;49.400;11.092;2023-07-31T03:10:29;19.00;55.90
3548;DHT22;1788;49.400;11.092;2023-07-31T03:12:55;19.00;55.90
3548;DHT22;1788;49.400;11.092;2023-07-31T03:15:22;19.00;55.90
3548;DHT22;1788;49.400;11.092;2023-07-31T03:17:49;19.00;56.00
3548;DHT22;1788;49.400;11.092;2023-07-31T03:20:19;18.90;55.90
3548;DHT22;1788;49.400;11.092;2023-07-31T03:22:45;19.00;56.00
3548;DHT22;1788;49.400;11.092;2023-07-31T03:25:12;18.90;56.00
3548;DHT22;1788;49.400;11.092;2023-07-31T03:27:39;18.90;56.10
3548;DHT22;1788;49.400;11.092;2023-07-31T03:30:05;18.90;56.20
3548;DHT22;1788;49.400;11.092;2023-07-31T03:32:32;18.90;56.20
3548;DHT22;1788;49.400;11.092;2023-07-31T03:34:59;18.80;56.20
3548;DHT22;1788;49.400;11.092;2023-07-31T03:37:25;18.80;56.20
3548;DHT22;1788;49.400;11.092;2023-07-31T03:39:52;18.80;56.30
3548;DHT22;1788;49.400;11.092;2023-07-31T03:42:18;18.80;56.30
3548;DHT22;1788;49.400;11.092;2023-07-31T03:44:45;18.80;56.40
3548;DHT22;1788;49.400;11.092;2023-07-31T03:47:13;18.80;56.40
3548;DHT22;1788;49.400;11.092;2023-07-31T03:49:40;18.70;56.40
3548;DHT22;1788;49.400;11.092;2023-07-31T03:52:07;18.80;56.40
3548;DHT22;1788;49.400;11.092;2023-07-31T03:54:33;18.80;56.40
3548;DHT22;1788;49.400;11.092;2023-07-31T03:57:00;18.80;56.50
3548;DHT22;1788;49.400;11.092;2023-07-31T03:59:27;18.80;56.50
3548;DHT22;1788;49.400;11.092;2023-07-31T04:01:54;18.70;56.50
3548;DHT22;1788;49.400;11.092;2023-07-31T04:04:22;18.70;56.50
3548;DHT22;1788;49.400;11.092;2023-07-31T04:06:48;18.70;56.60
3548;DHT22;1788;49.400;11.092;2023-07-31T04:09:15;18.70;56.60
3548;DHT22;1788;49.400;11.092;2023-07-31T04:11:42;18.60;56.60
3548;DHT22;1788;49.400;11.092;2023-07-31T04:14:08;18.60;56.70
3548;DHT22;1788;49.400;11.092;2023-07-31T04:16:35;18.60;56.70
3548;DHT22;1788;49.400;11.092;2023-07-31T04:19:03;18.70;56.80
3548;DHT22;1788;49.400;11.092;2023-07-31T04:21:30;18.60;56.70
3548;DHT22;1788;49.400;11.092;2023-07-31T04:23:57;18.70;57.20
3548;DHT22;1788;49.400;11.092;2023-07-31T04:26:24;18.60;56.70
3548;DHT22;1788;49.400;11.092;2023-07-31T04:28:51;18.70;56.70
3548;DHT22;1788;49.400;11.092;2023-07-31T04:31:17;18.70;56.80
3548;DHT22;1788;49.400;11.092;2023-07-31T04:33:44;18.70;56.80
3548;DHT22;1788;49.400;11.092;2023-07-31T04:36:10;18.70;56.80
3548;DHT22;1788;49.400;11.092;2023-07-31T04:38:37;18.70;56.80
3548;DHT22;1788;49.400;11.092;2023-07-31T04:41:04;18.70;56.80
3548;DHT22;1788;49.400;11.092;2023-07-31T04:43:31;18.70;56.90
3548;DHT22;1788;49.400;11.092;2023-07-31T04:45:58;18.70;57.40
3548;DHT22;1788;49.400;11.092;2023-07-31T04:48:26;18.70;56.90
3548;DHT22;1788;49.400;11.092;2023-07-31T04:50:52;18.70;56.90
3548;DHT22;1788;49.400;11.092;2023-07-31T04:53:20;18.70;57.10
3548;DHT22;1788;49.400;11.092;2023-07-31T04:55:47;18.70;57.10
3548;DHT22;1788;49.400;11.092;2023-07-31T04:58:14;18.60;57.00
3548;DHT22;1788;49.400;11.092;2023-07-31T05:00:41;18.60;57.10
3548;DHT22;1788;49.400;11.092;2023-07-31T05:03:08;18.60;57.30
3548;DHT22;1788;49.400;11.092;2023-07-31T05:05:35;18.60;57.30
3548;DHT22;1788;49.400;11.092;2023-07-31T05:08:02;18.60;57.50
3548;DHT22;1788;49.400;11.092;2023-07-31T05:10:29;18.60;57.50
3548;DHT22;1788;49.400;11.092;2023-07-31T05:12:55;18.70;57.60
3548;DHT22;1788;49.400;11.092;2023-07-31T05:15:22;18.80;57.70
3548;DHT22;1788;49.400;11.092;2023-07-31T05:17:48;18.90;57.70
3548;DHT22;1788;49.400;11.092;2023-07-31T05:20:15;18.90;57.60
3548;DHT22;1788;49.400;11.092;2023-07-31T05:22:42;19.10;57.60
3548;DHT22;1788;49.400;11.092;2023-07-31T05:25:09;19.10;57.40
3548;DHT22;1788;49.400;11.092;2023-07-31T05:27:36;19.10;57.30
3548;DHT22;1788;49.400;11.092;2023-07-31T05:30:02;19.20;57.30
3548;DHT22;1788;49.400;11.092;2023-07-31T05:32:29;19.20;57.30
3548;DHT22;1788;49.400;11.092;2023-07-31T05:34:55;19.20;57.20
3548;DHT22;1788;49.400;11.092;2023-07-31T05:37:22;19.20;57.20
3548;DHT22;1788;49.400;11.092;2023-07-31T05:39:49;19.20;57.10
3548;DHT22;1788;49.400;11.092;2023-07-31T05:42:15;19.30;57.20
3548;DHT22;1788;49.400;11.092;2023-07-31T05:44:42;19.30;57.20
3548;DHT22;1788;49.400;11.092;2023-07-31T05:47:09;19.30;57.20
3548;DHT22;1788;49.400;11.092;2023-07-31T05:49:36;19.30;57.20
3548;DHT22;1788;49.400;11.092;2023-07-31T05:52:03;19.30;57.20
3548;DHT22;1788;49.400;11.092;2023-07-31T05:54:29;19.30;57.20
3548;DHT22;1788;49.400;11.092;2023-07-31T05:56:56;19.30;57.20
3548;DHT22;1788;49.400;11.092;2023-07-31T05:59:22;19.30;57.10
3548;DHT22;1788;49.400;11.092;2023-07-31T06:01:49;19.30;57.10
3548;DHT22;1788;49.400;11.092;2023-07-31T06:04:16;19.40;57.20
3548;DHT22;1788;49.400;11.092;2023-07-31T06:06:42;19.40;57.20
3548;DHT22;1788;49.400;11.092;2023-07-31T06:09:09;19.50;57.20
3548;DHT22;1788;49.400;11.092;2023-07-31T06:11:36;19.50;57.20
3548;DHT22;1788;49.400;11.092;2023-07-31T06:14:02;19.50;57.10
3548;DHT22;1788;49.400;11.092;2023-07-31T06:16:29;19.60;57.10
3548;DHT22;1788;49.400;11.092;2023-07-31T06:18:56;19.60;57.10
3548;DHT22;1788;49.400;11.092;2023-07-31T06:21:23;19.70;57.10
3548;DHT22;1788;49.400;11.092;2023-07-31T06:23:50;19.70;57.70
3548;DHT22;1788;49.400;11.092;2023-07-31T06:26:16;19.70;57.10
3548;DHT22;1788;49.400;11.092;2023-07-31T06:28:43;19.70;57.00
3548;DHT22;1788;49.400;11.092;2023-07-31T06:31:09;19.70;56.90
3548;DHT22;1788;49.400;11.092;2023-07-31T06:33:37;19.70;56.80
3548;DHT22;1788;49.400;11.092;2023-07-31T06:36:03;19.70;56.80
3548;DHT22;1788;49.400;11.092;2023-07-31T06:38:30;19.70;56.80
3548;DHT22;1788;49.400;11.092;2023-07-31T06:40:57;19.80;56.90
3548;DHT22;1788;49.400;11.092;2023-07-31T06:43:23;19.80;56.80
3548;DHT22;1788;49.400;11.092;2023-07-31T06:45:51;19.80;56.80
3548;DHT22;1788;49.400;11.092;2023-07-31T06:48:17;19.90;56.80
3548;DHT22;1788;49.400;11.092;2023-07-31T06:50:44;19.90;56.70
3548;DHT22;1788;49.400;11.092;2023-07-31T06:53:11;19.90;56.40
3548;DHT22;1788;49.400;11.092;2023-07-31T06:55:38;20.00;56.70
3548;DHT22;1788;49.400;11.092;2023-07-31T06:58:06;20.00;56.10
3548;DHT22;1788;49.400;11.092;2023-07-31T07:00:32;20.00;56.00
3548;DHT22;1788;49.400;11.092;2023-07-31T07:02:59;20.00;55.90
3548;DHT22;1788;49.400;11.092;2023-07-31T07:05:26;20.10;55.90
3548;DHT22;1788;49.400;11.092;2023-07-31T07:07:52;20.10;55.90
3548;DHT22;1788;49.400;11.092;2023-07-31T07:10:20;20.20;55.80
3548;DHT22;1788;49.400;11.092;2023-07-31T07:12:47;20.20;55.70
3548;DHT22;1788;49.400;11.092;2023-07-31T07:15:14;20.20;55.60
3548;DHT22;1788;49.400;11.092;2023-07-31T07:17:40;20.30;55.50
3548;DHT22;1788;49.400;11.092;2023-07-31T07:20:07;20.40;55.40
3548;DHT22;1788;49.400;11.092;2023-07-31T07:22:34;20.40;55.30
3548;DHT22;1788;49.400;11.092;2023-07-31T07:25:00;20.50;55.20
3548;DHT22;1788;49.400;11.092;2023-07-31T07:27:27;20.60;55.20
3548;DHT22;1788;49.400;11.092;2023-07-31T07:29:55;20.60;54.80
3548;DHT22;1788;49.400;11.092;2023-07-31T07:32:22;20.60;54.80
3548;DHT22;1788;49.400;11.092;2023-07-31T07:34:48;20.70;54.80
3548;DHT22;1788;49.400;11.092;2023-07-31T07:37:16;20.70;54.80
3548;DHT22;1788;49.400;11.092;2023-07-31T07:39:43;20.70;54.70
3548;DHT22;1788;49.400;11.092;2023-07-31T07:42:10;20.70;54.60
3548;DHT22;1788;49.400;11.092;2023-07-31T07:44:37;20.70;54.60
3548;DHT22;1788;49.400;11.092;2023-07-31T07:47:04;20.70;54.60
3548;DHT22;1788;49.400;11.092;2023-07-31T07:49:30;20.80;54.60
3548;DHT22;1788;49.400;11.092;2023-07-31T07:51:57;20.80;54.60
3548;DHT22;1788;49.400;11.092;2023-07-31T07:54:23;20.80;54.60
3548;DHT22;1788;49.400;11.092;2023-07-31T07:56:51;20.90;54.50
3548;DHT22;1788;49.400;11.092;2023-07-31T07:59:17;20.90;54.30
3548;DHT22;1788;49.400;11.092;2023-07-31T08:01:44;20.90;54.10
3548;DHT22;1788;49.400;11.092;2023-07-31T08:04:11;21.00;54.00
3548;DHT22;1788;49.400;11.092;2023-07-31T08:06:38;21.00;54.00
3548;DHT22;1788;49.400;11.092;2023-07-31T08:09:05;21.10;53.90
3548;DHT22;1788;49.400;11.092;2023-07-31T08:11:32;21.10;53.90
3548;DHT22;1788;49.400;11.092;2023-07-31T08:13:59;21.20;53.90
3548;DHT22;1788;49.400;11.092;2023-07-31T08:16:26;21.20;53.80
3548;DHT22;1788;49.400;11.092;2023-07-31T08:18:52;21.30;53.70
3548;DHT22;1788;49.400;11.092;2023-07-31T08:21:20;21.40;53.50
3548;DHT22;1788;49.400;11.092;2023-07-31T08:23:46;21.40;53.50
3548;DHT22;1788;49.400;11.092;2023-07-31T08:26:14;21.60;53.40
3548;DHT22;1788;49.400;11.092;2023-07-31T08:28:40;21.50;53.30
3548;DHT22;1788;49.400;11.092;2023-07-31T08:31:08;21.60;53.20
3548;DHT22;1788;49.400;11.092;2023-07-31T08:33:34;21.70;53.00
3548;DHT22;1788;49.400;11.092;2023-07-31T08:36:01;21.80;52.90
3548;DHT22;1788;49.400;11.092;2023-07-31T08:38:27;21.90;52.90
3548;DHT22;1788;49.400;11.092;2023-07-31T08:40:54;22.00;52.80
3548;DHT22;1788;49.400;11.092;2023-07-31T08:43:21;22.20;52.70
3548;DHT22;1788;49.400;11.092;2023-07-31T08:45:47;22.30;52.60
3548;DHT22;1788;49.400;11.092;2023-07-31T08:48:15;22.40;52.50
3548;DHT22;1788;49.400;11.092;2023-07-31T08:50:41;22.60;52.50
3548;DHT22;1788;49.400;11.092;2023-07-31T08:53:08;22.50;52.20
3548;DHT22;1788;49.400;11.092;2023-07-31T08:55:35;22.60;52.00
3548;DHT22;1788;49.400;11.092;2023-07-31T08:58:01;22.70;51.90
3548;DHT22;1788;49.400;11.092;2023-07-31T09:00:28;22.70;51.90
3548;DHT22;1788;49.400;11.092;2023-07-31T09:02:56;22.80;51.70
3548;DHT22;1788;49.400;11.092;2023-07-31T09:05:22;22.80;51.60
3548;DHT22;1788;49.400;11.092;2023-07-31T09:07:49;22.80;51.60
3548;DHT22;1788;49.400;11.092;2023-07-31T09:10:16;22.80;51.60
3548;DHT22;1788;49.400;11.092;2023-07-31T09:12:43;22.90;52.10
3548;DHT22;1788;49.400;11.092;2023-07-31T09:15:10;22.90;51.60
3548;DHT22;1788;49.400;11.092;2023-07-31T09:17:37;23.10;51.60
3548;DHT22;1788;49.400;11.092;2023-07-31T09:22:31;23.20;51.20
3548;DHT22;1788;49.400;11.092;2023-07-31T09:24:58;23.30;51.00
3548;DHT22;1788;49.400;11.092;2023-07-31T09:27:24;23.40;50.90
3548;DHT22;1788;49.400;11.092;2023-07-31T09:32:18;23.50;50.50
3548;DHT22;1788;49.400;11.092;2023-07-31T09:34:45;23.50;50.20
3548;DHT22;1788;49.400;11.092;2023-07-31T09:37:12;23.50;50.10
3548;DHT22;1788;49.400;11.092;2023-07-31T09:42:05;23.60;50.00
3548;DHT22;1788;49.400;11.092;2023-07-31T09:46:59;23.80;49.90
3548;DHT22;1788;49.400;11.092;2023-07-31T09:49:25;23.80;49.70
3548;DHT22;1788;49.400;11.092;2023-07-31T09:51:52;23.70;49.60
3548;DHT22;1788;49.400;11.092;2023-07-31T09:54:18;23.60;49.70
3548;DHT22;1788;49.400;11.092;2023-07-31T09:56:46;23.50;49.70
3548;DHT22;1788;49.400;11.092;2023-07-31T09:59:12;23.40;49.70
3548;DHT22;1788;49.400;11.092;2023-07-31T10:01:39;23.40;49.90
3548;DHT22;1788;49.400;11.092;2023-07-31T10:04:06;23.40;50.00
3548;DHT22;1788;49.400;11.092;2023-07-31T10:06:33;23.30;50.00
3548;DHT22;1788;49.400;11.092;2023-07-31T10:08:59;23.40;50.10
3548;DHT22;1788;49.400;11.092;2023-07-31T10:11:26;23.40;50.70
3548;DHT22;1788;49.400;11.092;2023-07-31T10:13:53;23.50;50.20
3548;DHT22;1788;49.400;11.092;2023-07-31T10:16:22;23.70;50.10
3548;DHT22;1788;49.400;11.092;2023-07-31T10:18:49;23.70;50.00
3548;DHT22;1788;49.400;11.092;2023-07-31T10:21:17;23.70;49.70
3548;DHT22;1788;49.400;11.092;2023-07-31T10:23:43;23.60;49.60
3548;DHT22;1788;49.400;11.092;2023-07-31T10:26:10;23.60;49.80
3548;DHT22;1788;49.400;11.092;2023-07-31T10:28:36;23.50;49.90
3548;DHT22;1788;49.400;11.092;2023-07-31T10:31:03;23.50;49.90
3548;DHT22;1788;49.400;11.092;2023-07-31T10:33:30;23.40;49.80
3548;DHT22;1788;49.400;11.092;2023-07-31T10:38:25;23.40;49.90
3548;DHT22;1788;49.400;11.092;2023-07-31T10:40:51;23.40;49.90
3548;DHT22;1788;49.400;11.092;2023-07-31T10:45:44;23.50;49.90
3548;DHT22;1788;49.400;11.092;2023-07-31T10:50:38;23.50;49.70
3548;DHT22;1788;49.400;11.092;2023-07-31T10:53:05;23.60;49.80
3548;DHT22;1788;49.400;11.092;2023-07-31T11:00:26;23.70;49.60
3548;DHT22;1788;49.400;11.092;2023-07-31T11:05:19;23.70;49.40
3548;DHT22;1788;49.400;11.092;2023-07-31T11:07:47;23.70;49.40
3548;DHT22;1788;49.400;11.092;2023-07-31T11:10:17;23.70;49.30
3548;DHT22;1788;49.400;11.092;2023-07-31T11:12:40;23.70;49.30
3548;DHT22;1788;49.400;11.092;2023-07-31T11:15:08;23.90;49.40
3548;DHT22;1788;49.400;11.092;2023-07-31T11:17:37;23.80;49.30
3548;DHT22;1788;49.400;11.092;2023-07-31T11:20:02;23.90;50.00
3548;DHT22;1788;49.400;11.092;2023-07-31T11:22:29;23.80;49.30
3548;DHT22;1788;49.400;11.092;2023-07-31T11:24:56;23.90;49.50
3548;DHT22;1788;49.400;11.092;2023-07-31T11:27:23;23.80;49.30
3548;DHT22;1788;49.400;11.092;2023-07-31T11:29:50;23.90;50.20
3548;DHT22;1788;49.400;11.092;2023-07-31T11:32:17;23.80;49.50
3548;DHT22;1788;49.400;11.092;2023-07-31T11:37:11;23.70;49.80
3548;DHT22;1788;49.400;11.092;2023-07-31T11:39:38;23.70;49.20
3548;DHT22;1788;49.400;11.092;2023-07-31T11:42:05;23.60;49.10
3548;DHT22;1788;49.400;11.092;2023-07-31T11:46:59;23.60;49.10
3548;DHT22;1788;49.400;11.092;2023-07-31T11:49:26;23.50;49.10
3548;DHT22;1788;49.400;11.092;2023-07-31T11:51:52;23.50;49.10
3548;DHT22;1788;49.400;11.092;2023-07-31T11:54:20;23.40;49.00
3548;DHT22;1788;49.400;11.092;2023-07-31T11:56:46;23.40;49.00
3548;DHT22;1788;49.400;11.092;2023-07-31T11:59:13;23.30;49.00
3548;DHT22;1788;49.400;11.092;2023-07-31T12:01:39;23.30;49.00
3548;DHT22;1788;49.400;11.092;2023-07-31T12:04:06;23.30;49.00
3548;DHT22;1788;49.400;11.092;2023-07-31T12:06:34;23.30;49.10
3548;DHT22;1788;49.400;11.092;2023-07-31T12:09:03;23.20;49.00
3548;DHT22;1788;49.400;11.092;2023-07-31T12:11:27;23.20;49.00
3548;DHT22;1788;49.400;11.092;2023-07-31T12:13:53;23.20;49.10
3548;DHT22;1788;49.400;11.092;2023-07-31T12:16:20;23.20;49.00
3548;DHT22;1788;49.400;11.092;2023-07-31T12:18:49;23.10;49.10
3548;DHT22;1788;49.400;11.092;2023-07-31T12:21:14;23.10;49.10
3548;DHT22;1788;49.400;11.092;2023-07-31T12:23:43;23.20;49.20
3548;DHT22;1788;49.400;11.092;2023-07-31T12:26:11;23.20;49.10
3548;DHT22;1788;49.400;11.092;2023-07-31T12:28:36;23.20;49.10
3548;DHT22;1788;49.400;11.092;2023-07-31T12:31:02;23.30;49.10
3548;DHT22;1788;49.400;11.092;2023-07-31T12:35:56;23.50;49.60
3548;DHT22;1788;49.400;11.092;2023-07-31T12:38:24;23.60;48.90
3548;DHT22;1788;49.400;11.092;2023-07-31T12:40:50;23.60;48.80
3548;DHT22;1788;49.400;11.092;2023-07-31T12:43:18;23.90;48.50
3548;DHT22;1788;49.400;11.092;2023-07-31T12:45:44;23.90;48.50
3548;DHT22;1788;49.400;11.092;2023-07-31T12:48:12;24.20;48.30
3548;DHT22;1788;49.400;11.092;2023-07-31T12:50:38;24.20;48.30
3548;DHT22;1788;49.400;11.092;2023-07-31T12:53:05;24.20;48.00
3548;DHT22;1788;49.400;11.092;2023-07-31T12:55:32;24.30;47.80
3548;DHT22;1788;49.400;11.092;2023-07-31T12:57:59;24.30;47.70
3548;DHT22;1788;49.400;11.092;2023-07-31T13:00:26;24.30;47.70
3548;DHT22;1788;49.400;11.092;2023-07-31T13:02:53;24.30;47.50
3548;DHT22;1788;49.400;11.092;2023-07-31T13:05:20;24.40;47.70
3548;DHT22;1788;49.400;11.092;2023-07-31T13:07:47;24.30;47.60
3548;DHT22;1788;49.400;11.092;2023-07-31T13:10:14;24.30;47.60
3548;DHT22;1788;49.400;11.092;2023-07-31T13:12:40;24.30;47.50
3548;DHT22;1788;49.400;11.092;2023-07-31T13:15:07;24.30;47.50
3548;DHT22;1788;49.400;11.092;2023-07-31T13:17:34;24.30;47.40
3548;DHT22;1788;49.400;11.092;2023-07-31T13:20:01;24.30;47.20
3548;DHT22;1788;49.400;11.092;2023-07-31T13:22:28;24.30;47.10
3548;DHT22;1788;49.400;11.092;2023-07-31T13:24:55;24.50;47.00
3548;DHT22;1788;49.400;11.092;2023-07-31T13:27:22;24.50;47.00
3548;DHT22;1788;49.400;11.092;2023-07-31T13:29:49;24.60;46.80
3548;DHT22;1788;49.400;11.092;2023-07-31T13:32:16;24.80;46.70
3548;DHT22;1788;49.400;11.092;2023-07-31T13:34:43;24.90;46.60
3548;DHT22;1788;49.400;11.092;2023-07-31T13:37:09;25.00;46.50
3548;DHT22;1788;49.400;11.092;2023-07-31T13:39:36;25.20;46.40
3548;DHT22;1788;49.400;11.092;2023-07-31T13:42:03;25.30;46.20
3548;DHT22;1788;49.400;11.092;2023-07-31T13:44:30;25.50;46.00
3548;DHT22;1788;49.400;11.092;2023-07-31T13:46:59;25.70;45.80
3548;DHT22;1788;49.400;11.092;2023-07-31T13:49:26;25.70;45.80
3548;DHT22;1788;49.400;11.092;2023-07-31T13:51:53;25.80;45.80
3548;DHT22;1788;49.400;11.092;2023-07-31T13:54:20;25.70;45.80
3548;DHT22;1788;49.400;11.092;2023-07-31T13:56:47;25.70;45.80
3548;DHT22;1788;49.400;11.092;2023-07-31T13:59:13;25.60;45.70
3548;DHT22;1788;49.400;11.092;2023-07-31T14:01:40;25.60;45.80
3548;DHT22;1788;49.400;11.092;2023-07-31T14:04:07;25.50;45.80
3548;DHT22;1788;49.400;11.092;2023-07-31T14:06:35;25.50;45.80
3548;DHT22;1788;49.400;11.092;2023-07-31T14:09:02;25.50;45.80
3548;DHT22;1788;49.400;11.092;2023-07-31T14:11:28;25.60;45.80
3548;DHT22;1788;49.400;11.092;2023-07-31T14:13:55;25.60;45.70
3548;DHT22;1788;49.400;11.092;2023-07-31T14:16:21;25.50;45.70
3548;DHT22;1788;49.400;11.092;2023-07-31T14:18:49;25.60;45.70
3548;DHT22;1788;49.400;11.092;2023-07-31T14:21:16;25.50;45.60
3548;DHT22;1788;49.400;11.092;2023-07-31T14:23:44;25.50;45.60
3548;DHT22;1788;49.400;11.092;2023-07-31T14:26:10;25.50;45.70
3548;DHT22;1788;49.400;11.092;2023-07-31T14:28:37;25.50;45.60
3548;DHT22;1788;49.400;11.092;2023-07-31T14:31:04;25.30;45.50
3548;DHT22;1788;49.400;11.092;2023-07-31T14:33:31;25.30;45.50
3548;DHT22;1788;49.400;11.092;2023-07-31T14:36:00;25.30;45.70
3548;DHT22;1788;49.400;11.092;2023-07-31T14:38:27;25.20;46.40
3548;DHT22;1788;49.400;11.092;2023-07-31T14:40:54;25.10;45.70
3548;DHT22;1788;49.400;11.092;2023-07-31T14:43:21;25.10;45.70
3548;DHT22;1788;49.400;11.092;2023-07-31T14:45:48;25.00;45.60
3548;DHT22;1788;49.400;11.092;2023-07-31T14:48:15;25.00;45.60
3548;DHT22;1788;49.400;11.092;2023-07-31T14:50:41;24.90;45.50
3548;DHT22;1788;49.400;11.092;2023-07-31T14:53:08;24.90;45.50
3548;DHT22;1788;49.400;11.092;2023-07-31T14:55:35;24.80;45.50
3548;DHT22;1788;49.400;11.092;2023-07-31T14:58:02;24.80;45.50
3548;DHT22;1788;49.400;11.092;2023-07-31T15:00:29;24.70;45.70
3548;DHT22;1788;49.400;11.092;2023-07-31T15:02:56;24.60;45.50
3548;DHT22;1788;49.400;11.092;2023-07-31T15:05:23;24.60;45.60
3548;DHT22;1788;49.400;11.092;2023-07-31T15:07:49;24.60;45.70
3548;DHT22;1788;49.400;11.092;2023-07-31T15:10:16;24.50;45.70
3548;DHT22;1788;49.400;11.092;2023-07-31T15:12:43;24.40;46.00
3548;DHT22;1788;49.400;11.092;2023-07-31T15:15:10;24.40;46.00
3548;DHT22;1788;49.400;11.092;2023-07-31T15:17:37;24.30;46.10
3548;DHT22;1788;49.400;11.092;2023-07-31T15:20:04;24.20;46.10
3548;DHT22;1788;49.400;11.092;2023-07-31T15:22:31;24.20;46.30
3548;DHT22;1788;49.400;11.092;2023-07-31T15:24:58;24.10;46.20
3548;DHT22;1788;49.400;11.092;2023-07-31T15:27:24;24.10;46.30
3548;DHT22;1788;49.400;11.092;2023-07-31T15:29:51;24.10;46.40
3548;DHT22;1788;49.400;11.092;2023-07-31T15:32:18;24.00;46.40
3548;DHT22;1788;49.400;11.092;2023-07-31T15:34:45;24.00;46.60
3548;DHT22;1788;49.400;11.092;2023-07-31T15:37:12;24.00;46.60
3548;DHT22;1788;49.400;11.092;2023-07-31T15:39:39;24.00;47.30
3548;DHT22;1788;49.400;11.092;2023-07-31T15:42:06;24.00;46.70
3548;DHT22;1788;49.400;11.092;2023-07-31T15:44:33;24.00;46.50
3548;DHT22;1788;49.400;11.092;2023-07-31T15:47:00;24.00;46.90
3548;DHT22;1788;49.400;11.092;2023-07-31T15:49:26;24.00;46.90
3548;DHT22;1788;49.400;11.092;2023-07-31T15:51:53;24.00;47.00
3548;DHT22;1788;49.400;11.092;2023-07-31T15:54:20;24.00;47.10
3548;DHT22;1788;49.400;11.092;2023-07-31T15:56:46;24.10;47.20
3548;DHT22;1788;49.400;11.092;2023-07-31T15:59:13;24.10;47.10
3548;DHT22;1788;49.400;11.092;2023-07-31T16:01:40;24.10;47.10
3548;DHT22;1788;49.400;11.092;2023-07-31T16:04:08;24.20;47.20
3548;DHT22;1788;49.400;11.092;2023-07-31T16:06:34;24.10;47.10
3548;DHT22;1788;49.400;11.092;2023-07-31T16:09:02;24.20;47.10
3548;DHT22;1788;49.400;11.092;2023-07-31T16:11:28;24.20;47.10
3548;DHT22;1788;49.400;11.092;2023-07-31T16:13:55;24.30;47.10
3548;DHT22;1788;49.400;11.092;2023-07-31T16:16:22;24.30;47.00
3548;DHT22;1788;49.400;11.092;2023-07-31T16:18:48;24.30;47.00
3548;DHT22;1788;49.400;11.092;2023-07-31T16:21:16;24.40;47.10
3548;DHT22;1788;49.400;11.092;2023-07-31T16:23:42;24.30;47.00